sensor_id;sensor_type;location;lat;lon;timestamp;P1;durP1;ratioP1;P2;durP2;ratioP2
2544;SDS011;36212;48.838;9.142;2022-12-18T00:02:04;50.83;;;27.13;;
2544;SDS011;36212;48.838;9.142;2022-12-18T00:04:37;47.67;;;26.55;;
2544;SDS011;36212;48.838;9.142;2022-12-18T00:07:10;49.65;;;28.55;;
2544;SDS011;36212;48.838;9.142;2022-12-18T00:09:42;43.28;;;23.92;;
2544;SDS011;36212;48.838;9.142;2022-12-18T00:12:22;49.05;;;27.00;;
2544;SDS011;36212;48.838;9.142;2022-12-18T00:15:01;47.95;;;26.35;;
2544;SDS011;36212;48.838;9.142;2022-12-18T00:17:36;40.15;;;25.25;;
2544;SDS011;36212;48.838;9.142;2022-12-18T00:20:09;47.40;;;26.15;;
2544;SDS011;36212;48.838;9.142;2022-12-18T00:22:42;50.70;;;26.60;;
2544;SDS011;36212;48.838;9.142;2022-12-18T00:25:15;43.40;;;26.75;;
2544;SDS011;36212;48.838;9.142;2022-12-18T00:27:48;46.13;;;24.20;;
2544;SDS011;36212;48.838;9.142;2022-12-18T00:30:21;54.05;;;28.48;;
2544;SDS011;36212;48.838;9.142;2022-12-18T00:32:53;47.88;;;27.67;;
2544;SDS011;36212;48.838;9.142;2022-12-18T00:35:27;45.42;;;26.38;;
2544;SDS011;36212;48.838;9.142;2022-12-18T00:37:59;51.10;;;26.10;;
2544;SDS011;36212;48.838;9.142;2022-12-18T00:40:31;51.38;;;27.73;;
2544;SDS011;36212;48.838;9.142;2022-12-18T00:43:04;44.15;;;26.92;;
2544;SDS011;36212;48.838;9.142;2022-12-18T00:45:39;42.33;;;25.90;;
2544;SDS011;36212;48.838;9.142;2022-12-18T00:48:13;46.65;;;28.55;;
2544;SDS011;36212;48.838;9.142;2022-12-18T00:50:47;41.10;;;26.27;;
2544;SDS011;36212;48.838;9.142;2022-12-18T00:53:20;46.55;;;27.23;;
2544;SDS011;36212;48.838;9.142;2022-12-18T00:55:54;41.22;;;25.20;;
2544;SDS011;36212;48.838;9.142;2022-12-18T00:58:26;42.22;;;24.38;;
2544;SDS011;36212;48.838;9.142;2022-12-18T01:01:02;53.03;;;27.38;;
2544;SDS011;36212;48.838;9.142;2022-12-18T01:03:37;53.10;;;26.25;;
2544;SDS011;36212;48.838;9.142;2022-12-18T01:06:11;49.05;;;24.35;;
2544;SDS011;36212;48.838;9.142;2022-12-18T01:08:46;41.65;;;26.00;;
2544;SDS011;36212;48.838;9.142;2022-12-18T01:11:19;54.67;;;26.60;;
2544;SDS011;36212;48.838;9.142;2022-12-18T01:13:53;41.65;;;26.05;;
2544;SDS011;36212;48.838;9.142;2022-12-18T01:16:26;47.35;;;26.60;;
2544;SDS011;36212;48.838;9.142;2022-12-18T01:18:58;50.92;;;28.25;;
2544;SDS011;36212;48.838;9.142;2022-12-18T01:21:30;42.42;;;24.58;;
2544;SDS011;36212;48.838;9.142;2022-12-18T01:24:03;39.42;;;24.50;;
2544;SDS011;36212;48.838;9.142;2022-12-18T01:26:36;44.17;;;24.63;;
2544;SDS011;36212;48.838;9.142;2022-12-18T01:29:08;40.83;;;24.75;;
2544;SDS011;36212;48.838;9.142;2022-12-18T01:31:40;43.35;;;25.15;;
2544;SDS011;36212;48.838;9.142;2022-12-18T01:34:12;44.70;;;25.70;;
2544;SDS011;36212;48.838;9.142;2022-12-18T01:36:44;33.42;;;22.85;;
2544;SDS011;36212;48.838;9.142;2022-12-18T01:42:08;49.05;;;25.20;;
2544;SDS011;36212;48.838;9.142;2022-12-18T01:47:48;41.25;;;21.30;;
2544;SDS011;36212;48.838;9.142;2022-12-18T01:50:40;40.60;;;23.90;;
2544;SDS011;36212;48.838;9.142;2022-12-18T01:53:16;42.90;;;25.40;;
2544;SDS011;36212;48.838;9.142;2022-12-18T01:55:53;41.85;;;24.75;;
2544;SDS011;36212;48.838;9.142;2022-12-18T01:58:51;48.45;;;26.90;;
2544;SDS011;36212;48.838;9.142;2022-12-18T02:01:32;44.95;;;28.45;;
2544;SDS011;36212;48.838;9.142;2022-12-18T02:09:59;50.67;;;24.88;;
2544;SDS011;36212;48.838;9.142;2022-12-18T02:13:04;65.82;;;29.83;;
2544;SDS011;36212;48.838;9.142;2022-12-18T02:19:00;47.35;;;26.83;;
2544;SDS011;36212;48.838;9.142;2022-12-18T02:22:22;51.00;;;25.40;;
2544;SDS011;36212;48.838;9.142;2022-12-18T02:25:37;38.60;;;23.13;;
2544;SDS011;36212;48.838;9.142;2022-12-18T02:28:33;44.40;;;23.20;;
2544;SDS011;36212;48.838;9.142;2022-12-18T02:31:15;39.55;;;24.38;;
2544;SDS011;36212;48.838;9.142;2022-12-18T02:33:56;39.97;;;23.73;;
2544;SDS011;36212;48.838;9.142;2022-12-18T02:36:33;43.72;;;23.17;;
2544;SDS011;36212;48.838;9.142;2022-12-18T02:39:10;38.20;;;23.48;;
2544;SDS011;36212;48.838;9.142;2022-12-18T02:41:46;39.45;;;24.05;;
2544;SDS011;36212;48.838;9.142;2022-12-18T02:44:19;44.08;;;24.60;;
2544;SDS011;36212;48.838;9.142;2022-12-18T02:46:52;37.00;;;23.05;;
2544;SDS011;36212;48.838;9.142;2022-12-18T02:52:34;35.90;;;20.30;;
2544;SDS011;36212;48.838;9.142;2022-12-18T02:55:53;33.00;;;20.02;;
2544;SDS011;36212;48.838;9.142;2022-12-18T03:02:51;47.47;;;22.27;;
2544;SDS011;36212;48.838;9.142;2022-12-18T03:08:38;43.33;;;23.23;;
2544;SDS011;36212;48.838;9.142;2022-12-18T03:11:17;43.53;;;23.00;;
2544;SDS011;36212;48.838;9.142;2022-12-18T03:14:30;35.63;;;20.77;;
2544;SDS011;36212;48.838;9.142;2022-12-18T03:17:07;44.83;;;24.33;;
2544;SDS011;36212;48.838;9.142;2022-12-18T03:19:46;38.47;;;19.95;;
2544;SDS011;36212;48.838;9.142;2022-12-18T03:22:22;34.85;;;20.45;;
2544;SDS011;36212;48.838;9.142;2022-12-18T03:24:57;32.15;;;20.23;;
2544;SDS011;36212;48.838;9.142;2022-12-18T03:27:36;44.45;;;22.90;;
2544;SDS011;36212;48.838;9.142;2022-12-18T03:30:17;39.88;;;22.13;;
2544;SDS011;36212;48.838;9.142;2022-12-18T03:33:01;41.25;;;23.30;;
2544;SDS011;36212;48.838;9.142;2022-12-18T03:35:46;31.92;;;19.88;;
2544;SDS011;36212;48.838;9.142;2022-12-18T03:38:19;41.55;;;23.73;;
2544;SDS011;36212;48.838;9.142;2022-12-18T03:45:04;45.78;;;22.05;;
2544;SDS011;36212;48.838;9.142;2022-12-18T03:47:27;39.58;;;21.85;;
2544;SDS011;36212;48.838;9.142;2022-12-18T03:50:46;34.42;;;20.15;;
2544;SDS011;36212;48.838;9.142;2022-12-18T03:59:32;38.88;;;22.42;;
2544;SDS011;36212;48.838;9.142;2022-12-18T04:02:07;37.75;;;21.67;;
2544;SDS011;36212;48.838;9.142;2022-12-18T04:04:41;39.70;;;21.60;;
2544;SDS011;36212;48.838;9.142;2022-12-18T04:07:17;32.60;;;19.13;;
2544;SDS011;36212;48.838;9.142;2022-12-18T04:09:53;35.58;;;22.63;;
2544;SDS011;36212;48.838;9.142;2022-12-18T04:12:29;37.60;;;21.42;;
2544;SDS011;36212;48.838;9.142;2022-12-18T04:15:01;37.70;;;20.55;;
2544;SDS011;36212;48.838;9.142;2022-12-18T04:17:35;46.28;;;21.35;;
2544;SDS011;36212;48.838;9.142;2022-12-18T04:20:07;30.88;;;18.90;;
2544;SDS011;36212;48.838;9.142;2022-12-18T04:22:40;47.47;;;21.98;;
2544;SDS011;36212;48.838;9.142;2022-12-18T04:25:12;40.20;;;21.35;;
2544;SDS011;36212;48.838;9.142;2022-12-18T04:27:47;45.03;;;23.17;;
2544;SDS011;36212;48.838;9.142;2022-12-18T04:30:19;31.50;;;21.27;;
2544;SDS011;36212;48.838;9.142;2022-12-18T04:32:51;40.85;;;22.55;;
2544;SDS011;36212;48.838;9.142;2022-12-18T04:35:23;46.85;;;23.40;;
2544;SDS011;36212;48.838;9.142;2022-12-18T04:37:55;34.55;;;22.20;;
2544;SDS011;36212;48.838;9.142;2022-12-18T04:40:27;31.88;;;21.55;;
2544;SDS011;36212;48.838;9.142;2022-12-18T04:42:59;35.28;;;21.77;;
2544;SDS011;36212;48.838;9.142;2022-12-18T04:45:31;41.53;;;23.15;;
2544;SDS011;36212;48.838;9.142;2022-12-18T04:48:04;34.47;;;21.35;;
2544;SDS011;36212;48.838;9.142;2022-12-18T04:50:48;36.53;;;19.63;;
2544;SDS011;36212;48.838;9.142;2022-12-18T04:53:20;42.58;;;20.42;;
2544;SDS011;36212;48.838;9.142;2022-12-18T04:56:05;27.27;;;17.95;;
2544;SDS011;36212;48.838;9.142;2022-12-18T04:58:42;35.08;;;21.50;;
2544;SDS011;36212;48.838;9.142;2022-12-18T05:01:16;34.00;;;20.83;;
2544;SDS011;36212;48.838;9.142;2022-12-18T05:03:50;40.05;;;21.00;;
2544;SDS011;36212;48.838;9.142;2022-12-18T05:06:23;38.38;;;22.00;;
2544;SDS011;36212;48.838;9.142;2022-12-18T05:08:55;35.92;;;20.40;;
2544;SDS011;36212;48.838;9.142;2022-12-18T05:11:36;40.60;;;22.38;;
2544;SDS011;36212;48.838;9.142;2022-12-18T05:14:08;37.30;;;19.00;;
2544;SDS011;36212;48.838;9.142;2022-12-18T05:16:40;44.22;;;20.48;;
2544;SDS011;36212;48.838;9.142;2022-12-18T05:19:12;40.10;;;22.02;;
2544;SDS011;36212;48.838;9.142;2022-12-18T05:21:44;26.88;;;18.48;;
2544;SDS011;36212;48.838;9.142;2022-12-18T05:24:16;26.48;;;17.13;;
2544;SDS011;36212;48.838;9.142;2022-12-18T05:26:48;30.95;;;18.05;;
2544;SDS011;36212;48.838;9.142;2022-12-18T05:29:20;33.38;;;22.55;;
2544;SDS011;36212;48.838;9.142;2022-12-18T05:31:53;30.88;;;17.95;;
2544;SDS011;36212;48.838;9.142;2022-12-18T05:34:25;37.83;;;21.10;;
2544;SDS011;36212;48.838;9.142;2022-12-18T05:36:57;43.67;;;23.60;;
2544;SDS011;36212;48.838;9.142;2022-12-18T05:39:29;33.20;;;18.25;;
2544;SDS011;36212;48.838;9.142;2022-12-18T05:42:01;35.75;;;20.48;;
2544;SDS011;36212;48.838;9.142;2022-12-18T05:44:33;31.10;;;19.17;;
2544;SDS011;36212;48.838;9.142;2022-12-18T05:47:05;32.15;;;18.55;;
2544;SDS011;36212;48.838;9.142;2022-12-18T05:49:38;42.00;;;20.65;;
2544;SDS011;36212;48.838;9.142;2022-12-18T05:52:10;31.40;;;19.67;;
2544;SDS011;36212;48.838;9.142;2022-12-18T05:54:42;35.20;;;21.45;;
2544;SDS011;36212;48.838;9.142;2022-12-18T05:57:14;33.35;;;19.05;;
2544;SDS011;36212;48.838;9.142;2022-12-18T05:59:46;39.83;;;23.13;;
2544;SDS011;36212;48.838;9.142;2022-12-18T06:02:18;34.85;;;17.08;;
2544;SDS011;36212;48.838;9.142;2022-12-18T06:04:52;30.73;;;19.27;;
2544;SDS011;36212;48.838;9.142;2022-12-18T06:07:24;24.45;;;18.15;;
2544;SDS011;36212;48.838;9.142;2022-12-18T06:09:56;31.00;;;18.80;;
2544;SDS011;36212;48.838;9.142;2022-12-18T06:12:28;32.38;;;19.30;;
2544;SDS011;36212;48.838;9.142;2022-12-18T06:15:01;30.58;;;19.23;;
2544;SDS011;36212;48.838;9.142;2022-12-18T06:17:34;29.92;;;19.70;;
2544;SDS011;36212;48.838;9.142;2022-12-18T06:20:08;29.98;;;18.85;;
2544;SDS011;36212;48.838;9.142;2022-12-18T06:22:40;33.55;;;19.80;;
2544;SDS011;36212;48.838;9.142;2022-12-18T06:25:14;29.75;;;17.92;;
2544;SDS011;36212;48.838;9.142;2022-12-18T06:27:47;37.75;;;19.67;;
2544;SDS011;36212;48.838;9.142;2022-12-18T06:30:19;34.95;;;20.67;;
2544;SDS011;36212;48.838;9.142;2022-12-18T06:32:52;33.22;;;21.48;;
2544;SDS011;36212;48.838;9.142;2022-12-18T06:35:27;34.60;;;20.13;;
2544;SDS011;36212;48.838;9.142;2022-12-18T06:38:00;38.92;;;19.30;;
2544;SDS011;36212;48.838;9.142;2022-12-18T06:40:34;29.50;;;17.33;;
2544;SDS011;36212;48.838;9.142;2022-12-18T06:43:09;35.45;;;20.00;;
2544;SDS011;36212;48.838;9.142;2022-12-18T06:45:41;30.55;;;19.65;;
2544;SDS011;36212;48.838;9.142;2022-12-18T06:48:13;31.60;;;18.25;;
2544;SDS011;36212;48.838;9.142;2022-12-18T06:50:45;30.08;;;19.80;;
2544;SDS011;36212;48.838;9.142;2022-12-18T06:53:18;34.45;;;20.35;;
2544;SDS011;36212;48.838;9.142;2022-12-18T06:55:50;30.05;;;18.70;;
2544;SDS011;36212;48.838;9.142;2022-12-18T06:58:22;30.30;;;19.25;;
2544;SDS011;36212;48.838;9.142;2022-12-18T07:00:59;28.13;;;16.63;;
2544;SDS011;36212;48.838;9.142;2022-12-18T07:03:34;25.73;;;18.60;;
2544;SDS011;36212;48.838;9.142;2022-12-18T07:06:13;31.73;;;18.75;;
2544;SDS011;36212;48.838;9.142;2022-12-18T07:08:49;35.35;;;19.58;;
2544;SDS011;36212;48.838;9.142;2022-12-18T07:11:23;31.55;;;20.85;;
2544;SDS011;36212;48.838;9.142;2022-12-18T07:13:58;36.45;;;19.40;;
2544;SDS011;36212;48.838;9.142;2022-12-18T07:16:30;40.95;;;21.48;;
2544;SDS011;36212;48.838;9.142;2022-12-18T07:19:03;38.42;;;21.00;;
2544;SDS011;36212;48.838;9.142;2022-12-18T07:21:35;28.75;;;18.13;;
2544;SDS011;36212;48.838;9.142;2022-12-18T07:24:07;32.75;;;19.63;;
2544;SDS011;36212;48.838;9.142;2022-12-18T07:26:39;34.33;;;19.33;;
2544;SDS011;36212;48.838;9.142;2022-12-18T07:29:11;32.33;;;19.00;;
2544;SDS011;36212;48.838;9.142;2022-12-18T07:31:43;31.52;;;19.00;;
2544;SDS011;36212;48.838;9.142;2022-12-18T07:34:15;28.50;;;17.65;;
2544;SDS011;36212;48.838;9.142;2022-12-18T07:36:48;29.05;;;18.60;;
2544;SDS011;36212;48.838;9.142;2022-12-18T07:39:20;27.80;;;18.52;;
2544;SDS011;36212;48.838;9.142;2022-12-18T07:41:52;30.55;;;18.30;;
2544;SDS011;36212;48.838;9.142;2022-12-18T07:45:03;33.42;;;18.88;;
2544;SDS011;36212;48.838;9.142;2022-12-18T07:47:36;35.35;;;19.42;;
2544;SDS011;36212;48.838;9.142;2022-12-18T07:50:08;35.05;;;20.52;;
2544;SDS011;36212;48.838;9.142;2022-12-18T07:52:41;32.60;;;20.13;;
2544;SDS011;36212;48.838;9.142;2022-12-18T07:55:13;27.30;;;19.23;;
2544;SDS011;36212;48.838;9.142;2022-12-18T07:57:46;39.90;;;22.73;;
2544;SDS011;36212;48.838;9.142;2022-12-18T08:00:23;51.85;;;28.27;;
2544;SDS011;36212;48.838;9.142;2022-12-18T08:02:55;33.58;;;20.52;;
2544;SDS011;36212;48.838;9.142;2022-12-18T08:05:27;34.92;;;20.40;;
2544;SDS011;36212;48.838;9.142;2022-12-18T08:08:00;34.50;;;21.23;;
2544;SDS011;36212;48.838;9.142;2022-12-18T08:10:32;38.70;;;22.17;;
2544;SDS011;36212;48.838;9.142;2022-12-18T08:13:14;44.50;;;22.27;;
2544;SDS011;36212;48.838;9.142;2022-12-18T08:15:46;44.28;;;21.95;;
2544;SDS011;36212;48.838;9.142;2022-12-18T08:18:35;34.40;;;20.70;;
2544;SDS011;36212;48.838;9.142;2022-12-18T08:21:19;37.15;;;21.88;;
2544;SDS011;36212;48.838;9.142;2022-12-18T08:23:58;31.25;;;20.10;;
2544;SDS011;36212;48.838;9.142;2022-12-18T08:26:38;34.05;;;19.00;;
2544;SDS011;36212;48.838;9.142;2022-12-18T08:29:11;34.00;;;21.42;;
2544;SDS011;36212;48.838;9.142;2022-12-18T08:31:49;33.92;;;19.58;;
2544;SDS011;36212;48.838;9.142;2022-12-18T08:34:23;37.63;;;23.88;;
2544;SDS011;36212;48.838;9.142;2022-12-18T08:37:08;40.30;;;25.13;;
2544;SDS011;36212;48.838;9.142;2022-12-18T08:39:41;33.45;;;21.58;;
2544;SDS011;36212;48.838;9.142;2022-12-18T08:42:13;30.20;;;18.70;;
2544;SDS011;36212;48.838;9.142;2022-12-18T08:45:25;35.35;;;19.25;;
2544;SDS011;36212;48.838;9.142;2022-12-18T08:47:58;37.10;;;21.15;;
2544;SDS011;36212;48.838;9.142;2022-12-18T08:50:30;39.75;;;22.05;;
2544;SDS011;36212;48.838;9.142;2022-12-18T08:53:02;30.60;;;19.90;;
2544;SDS011;36212;48.838;9.142;2022-12-18T08:55:35;31.15;;;19.05;;
2544;SDS011;36212;48.838;9.142;2022-12-18T08:58:07;34.78;;;20.42;;
2544;SDS011;36212;48.838;9.142;2022-12-18T09:00:40;38.00;;;21.92;;
2544;SDS011;36212;48.838;9.142;2022-12-18T09:03:12;36.85;;;21.27;;
2544;SDS011;36212;48.838;9.142;2022-12-18T09:05:47;38.00;;;21.48;;
2544;SDS011;36212;48.838;9.142;2022-12-18T09:08:22;33.15;;;21.13;;
2544;SDS011;36212;48.838;9.142;2022-12-18T09:10:54;44.03;;;23.40;;
2544;SDS011;36212;48.838;9.142;2022-12-18T09:13:27;38.22;;;22.42;;
2544;SDS011;36212;48.838;9.142;2022-12-18T09:15:59;45.33;;;24.13;;
2544;SDS011;36212;48.838;9.142;2022-12-18T09:18:34;35.15;;;20.15;;
2544;SDS011;36212;48.838;9.142;2022-12-18T09:21:11;34.30;;;19.85;;
2544;SDS011;36212;48.838;9.142;2022-12-18T09:23:51;34.75;;;22.90;;
2544;SDS011;36212;48.838;9.142;2022-12-18T09:26:25;35.78;;;21.48;;
2544;SDS011;36212;48.838;9.142;2022-12-18T09:28:58;33.10;;;20.30;;
2544;SDS011;36212;48.838;9.142;2022-12-18T09:31:32;32.72;;;19.90;;
2544;SDS011;36212;48.838;9.142;2022-12-18T09:34:07;44.85;;;22.85;;
2544;SDS011;36212;48.838;9.142;2022-12-18T09:36:40;38.53;;;21.38;;
2544;SDS011;36212;48.838;9.142;2022-12-18T09:39:12;39.25;;;22.15;;
2544;SDS011;36212;48.838;9.142;2022-12-18T09:41:54;44.15;;;21.60;;
2544;SDS011;36212;48.838;9.142;2022-12-18T09:44:43;49.40;;;21.17;;
2544;SDS011;36212;48.838;9.142;2022-12-18T09:47:27;40.72;;;21.25;;
2544;SDS011;36212;48.838;9.142;2022-12-18T09:53:03;36.75;;;21.70;;
2544;SDS011;36212;48.838;9.142;2022-12-18T09:55:46;36.80;;;23.20;;
2544;SDS011;36212;48.838;9.142;2022-12-18T09:58:25;44.78;;;23.35;;
2544;SDS011;36212;48.838;9.142;2022-12-18T10:01:30;36.38;;;21.77;;
2544;SDS011;36212;48.838;9.142;2022-12-18T10:04:13;39.97;;;20.52;;
2544;SDS011;36212;48.838;9.142;2022-12-18T10:06:50;33.58;;;20.10;;
2544;SDS011;36212;48.838;9.142;2022-12-18T10:09:52;31.40;;;20.02;;
2544;SDS011;36212;48.838;9.142;2022-12-18T10:13:13;35.92;;;20.25;;
2544;SDS011;36212;48.838;9.142;2022-12-18T10:16:16;33.45;;;20.15;;
2544;SDS011;36212;48.838;9.142;2022-12-18T10:28:23;38.25;;;21.88;;
2544;SDS011;36212;48.838;9.142;2022-12-18T10:31:22;34.75;;;20.23;;
2544;SDS011;36212;48.838;9.142;2022-12-18T10:33:58;32.75;;;19.17;;
2544;SDS011;36212;48.838;9.142;2022-12-18T10:36:35;37.90;;;20.67;;
2544;SDS011;36212;48.838;9.142;2022-12-18T10:39:31;39.60;;;23.92;;
2544;SDS011;36212;48.838;9.142;2022-12-18T10:42:09;38.03;;;21.95;;
2544;SDS011;36212;48.838;9.142;2022-12-18T10:44:48;34.03;;;20.05;;
2544;SDS011;36212;48.838;9.142;2022-12-18T10:47:50;39.10;;;22.13;;
2544;SDS011;36212;48.838;9.142;2022-12-18T10:53:30;36.08;;;21.00;;
2544;SDS011;36212;48.838;9.142;2022-12-18T10:56:11;37.60;;;20.88;;
2544;SDS011;36212;48.838;9.142;2022-12-18T10:58:59;39.70;;;24.15;;
2544;SDS011;36212;48.838;9.142;2022-12-18T11:04:28;37.55;;;23.35;;
2544;SDS011;36212;48.838;9.142;2022-12-18T11:07:20;34.40;;;22.45;;
2544;SDS011;36212;48.838;9.142;2022-12-18T11:10:01;40.42;;;22.80;;
2544;SDS011;36212;48.838;9.142;2022-12-18T11:12:45;35.67;;;22.05;;
2544;SDS011;36212;48.838;9.142;2022-12-18T11:15:20;39.33;;;21.20;;
2544;SDS011;36212;48.838;9.142;2022-12-18T11:18:00;31.83;;;21.05;;
2544;SDS011;36212;48.838;9.142;2022-12-18T11:20:35;34.45;;;21.30;;
2544;SDS011;36212;48.838;9.142;2022-12-18T11:23:11;33.30;;;20.27;;
2544;SDS011;36212;48.838;9.142;2022-12-18T11:25:56;38.85;;;23.83;;
2544;SDS011;36212;48.838;9.142;2022-12-18T11:28:41;32.80;;;21.15;;
2544;SDS011;36212;48.838;9.142;2022-12-18T11:34:14;32.13;;;19.70;;
2544;SDS011;36212;48.838;9.142;2022-12-18T11:37:01;39.30;;;23.38;;
2544;SDS011;36212;48.838;9.142;2022-12-18T11:39:36;37.90;;;20.50;;
2544;SDS011;36212;48.838;9.142;2022-12-18T11:45:41;38.17;;;19.40;;
2544;SDS011;36212;48.838;9.142;2022-12-18T11:48:27;36.42;;;20.20;;
2544;SDS011;36212;48.838;9.142;2022-12-18T11:51:22;36.42;;;19.88;;
2544;SDS011;36212;48.838;9.142;2022-12-18T11:54:18;34.60;;;18.85;;
2544;SDS011;36212;48.838;9.142;2022-12-18T12:18:44;39.22;;;18.88;;
2544;SDS011;36212;48.838;9.142;2022-12-18T12:24:29;36.15;;;20.40;;
2544;SDS011;36212;48.838;9.142;2022-12-18T12:27:35;38.47;;;20.60;;
2544;SDS011;36212;48.838;9.142;2022-12-18T12:30:29;35.17;;;18.00;;
2544;SDS011;36212;48.838;9.142;2022-12-18T12:40:01;30.38;;;18.70;;
2544;SDS011;36212;48.838;9.142;2022-12-18T12:43:44;38.85;;;21.98;;
2544;SDS011;36212;48.838;9.142;2022-12-18T12:46:06;33.05;;;19.60;;
2544;SDS011;36212;48.838;9.142;2022-12-18T12:48:53;36.88;;;20.75;;
2544;SDS011;36212;48.838;9.142;2022-12-18T12:51:36;36.70;;;19.85;;
2544;SDS011;36212;48.838;9.142;2022-12-18T12:54:17;34.08;;;20.33;;
2544;SDS011;36212;48.838;9.142;2022-12-18T12:56:59;36.88;;;21.38;;
2544;SDS011;36212;48.838;9.142;2022-12-18T13:00:05;36.42;;;19.75;;
2544;SDS011;36212;48.838;9.142;2022-12-18T13:09:01;31.48;;;17.83;;
2544;SDS011;36212;48.838;9.142;2022-12-18T13:11:35;39.55;;;21.73;;
2544;SDS011;36212;48.838;9.142;2022-12-18T13:14:51;30.55;;;16.65;;
2544;SDS011;36212;48.838;9.142;2022-12-18T13:17:26;32.83;;;19.10;;
2544;SDS011;36212;48.838;9.142;2022-12-18T13:20:06;28.55;;;17.88;;
2544;SDS011;36212;48.838;9.142;2022-12-18T13:22:48;28.60;;;19.42;;
2544;SDS011;36212;48.838;9.142;2022-12-18T13:25:29;33.33;;;19.48;;
2544;SDS011;36212;48.838;9.142;2022-12-18T13:28:11;31.27;;;18.30;;
2544;SDS011;36212;48.838;9.142;2022-12-18T13:34:35;29.48;;;18.20;;
2544;SDS011;36212;48.838;9.142;2022-12-18T13:43:28;28.15;;;15.88;;
2544;SDS011;36212;48.838;9.142;2022-12-18T13:46:42;31.45;;;19.65;;
2544;SDS011;36212;48.838;9.142;2022-12-18T13:49:23;35.42;;;18.73;;
2544;SDS011;36212;48.838;9.142;2022-12-18T13:52:17;33.35;;;18.45;;
2544;SDS011;36212;48.838;9.142;2022-12-18T13:54:58;28.95;;;19.20;;
2544;SDS011;36212;48.838;9.142;2022-12-18T13:57:39;31.63;;;19.23;;
2544;SDS011;36212;48.838;9.142;2022-12-18T14:03:00;30.90;;;18.80;;
2544;SDS011;36212;48.838;9.142;2022-12-18T14:05:52;33.05;;;19.30;;
2544;SDS011;36212;48.838;9.142;2022-12-18T14:08:40;35.70;;;20.38;;
2544;SDS011;36212;48.838;9.142;2022-12-18T14:11:20;37.17;;;23.02;;
2544;SDS011;36212;48.838;9.142;2022-12-18T14:13:58;35.83;;;20.23;;
2544;SDS011;36212;48.838;9.142;2022-12-18T14:16:31;34.33;;;18.17;;
2544;SDS011;36212;48.838;9.142;2022-12-18T14:19:04;36.13;;;19.73;;
2544;SDS011;36212;48.838;9.142;2022-12-18T14:21:47;34.42;;;19.67;;
2544;SDS011;36212;48.838;9.142;2022-12-18T14:24:23;35.95;;;21.70;;
2544;SDS011;36212;48.838;9.142;2022-12-18T14:26:58;36.55;;;24.55;;
2544;SDS011;36212;48.838;9.142;2022-12-18T14:29:54;38.30;;;21.23;;
2544;SDS011;36212;48.838;9.142;2022-12-18T14:32:28;35.35;;;23.65;;
2544;SDS011;36212;48.838;9.142;2022-12-18T14:35:12;37.83;;;23.20;;
2544;SDS011;36212;48.838;9.142;2022-12-18T14:37:47;33.25;;;20.17;;
2544;SDS011;36212;48.838;9.142;2022-12-18T14:40:20;30.05;;;19.13;;
2544;SDS011;36212;48.838;9.142;2022-12-18T14:42:55;35.10;;;20.73;;
2544;SDS011;36212;48.838;9.142;2022-12-18T14:48:36;39.20;;;21.75;;
2544;SDS011;36212;48.838;9.142;2022-12-18T14:51:18;32.70;;;20.20;;
2544;SDS011;36212;48.838;9.142;2022-12-18T14:53:58;29.60;;;18.88;;
2544;SDS011;36212;48.838;9.142;2022-12-18T14:56:36;35.88;;;21.30;;
2544;SDS011;36212;48.838;9.142;2022-12-18T14:59:22;35.25;;;23.17;;
2544;SDS011;36212;48.838;9.142;2022-12-18T15:05:04;33.10;;;21.80;;
2544;SDS011;36212;48.838;9.142;2022-12-18T15:07:52;42.45;;;25.90;;
2544;SDS011;36212;48.838;9.142;2022-12-18T15:10:30;42.35;;;23.10;;
2544;SDS011;36212;48.838;9.142;2022-12-18T15:13:06;41.85;;;23.70;;
2544;SDS011;36212;48.838;9.142;2022-12-18T15:15:52;39.30;;;25.05;;
2544;SDS011;36212;48.838;9.142;2022-12-18T15:18:32;45.72;;;23.30;;
2544;SDS011;36212;48.838;9.142;2022-12-18T15:21:11;40.15;;;23.85;;
2544;SDS011;36212;48.838;9.142;2022-12-18T15:23:51;42.45;;;24.77;;
2544;SDS011;36212;48.838;9.142;2022-12-18T15:26:30;40.25;;;21.95;;
2544;SDS011;36212;48.838;9.142;2022-12-18T15:29:19;36.95;;;23.55;;
2544;SDS011;36212;48.838;9.142;2022-12-18T15:32:03;48.35;;;23.10;;
2544;SDS011;36212;48.838;9.142;2022-12-18T15:34:49;38.97;;;24.10;;
2544;SDS011;36212;48.838;9.142;2022-12-18T15:37:41;36.08;;;21.80;;
2544;SDS011;36212;48.838;9.142;2022-12-18T15:40:16;36.38;;;22.00;;
2544;SDS011;36212;48.838;9.142;2022-12-18T15:42:53;34.88;;;22.35;;
2544;SDS011;36212;48.838;9.142;2022-12-18T15:46:06;46.22;;;24.50;;
2544;SDS011;36212;48.838;9.142;2022-12-18T15:48:53;40.00;;;23.98;;
2544;SDS011;36212;48.838;9.142;2022-12-18T15:51:37;45.90;;;25.27;;
2544;SDS011;36212;48.838;9.142;2022-12-18T15:54:12;57.75;;;31.23;;
2544;SDS011;36212;48.838;9.142;2022-12-18T15:57:09;41.03;;;23.65;;
2544;SDS011;36212;48.838;9.142;2022-12-18T15:59:56;39.80;;;24.08;;
2544;SDS011;36212;48.838;9.142;2022-12-18T16:02:30;39.45;;;21.95;;
2544;SDS011;36212;48.838;9.142;2022-12-18T16:05:09;29.92;;;17.85;;
2544;SDS011;36212;48.838;9.142;2022-12-18T16:07:49;44.90;;;21.70;;
2544;SDS011;36212;48.838;9.142;2022-12-18T16:10:24;40.92;;;22.85;;
2544;SDS011;36212;48.838;9.142;2022-12-18T16:13:00;45.22;;;21.63;;
2544;SDS011;36212;48.838;9.142;2022-12-18T16:15:33;40.40;;;22.27;;
2544;SDS011;36212;48.838;9.142;2022-12-18T16:18:06;41.22;;;22.40;;
2544;SDS011;36212;48.838;9.142;2022-12-18T16:20:39;40.30;;;23.05;;
2544;SDS011;36212;48.838;9.142;2022-12-18T16:23:12;40.38;;;23.52;;
2544;SDS011;36212;48.838;9.142;2022-12-18T16:25:44;39.45;;;22.10;;
2544;SDS011;36212;48.838;9.142;2022-12-18T16:28:17;38.58;;;21.17;;
2544;SDS011;36212;48.838;9.142;2022-12-18T16:30:50;32.92;;;20.75;;
2544;SDS011;36212;48.838;9.142;2022-12-18T16:33:23;35.38;;;22.30;;
2544;SDS011;36212;48.838;9.142;2022-12-18T16:35:57;39.30;;;23.90;;
2544;SDS011;36212;48.838;9.142;2022-12-18T16:38:30;37.00;;;21.48;;
2544;SDS011;36212;48.838;9.142;2022-12-18T16:41:10;36.67;;;20.75;;
2544;SDS011;36212;48.838;9.142;2022-12-18T16:44:05;42.88;;;23.15;;
2544;SDS011;36212;48.838;9.142;2022-12-18T16:46:39;45.90;;;21.27;;
2544;SDS011;36212;48.838;9.142;2022-12-18T16:49:16;41.13;;;22.77;;
2544;SDS011;36212;48.838;9.142;2022-12-18T16:51:50;35.55;;;21.05;;
2544;SDS011;36212;48.838;9.142;2022-12-18T16:54:23;39.63;;;21.77;;
2544;SDS011;36212;48.838;9.142;2022-12-18T16:57:00;40.45;;;21.33;;
2544;SDS011;36212;48.838;9.142;2022-12-18T16:59:34;43.13;;;23.70;;
2544;SDS011;36212;48.838;9.142;2022-12-18T17:02:17;34.72;;;22.33;;
2544;SDS011;36212;48.838;9.142;2022-12-18T17:04:57;43.42;;;22.95;;
2544;SDS011;36212;48.838;9.142;2022-12-18T17:07:32;42.90;;;24.58;;
2544;SDS011;36212;48.838;9.142;2022-12-18T17:10:09;38.30;;;23.00;;
2544;SDS011;36212;48.838;9.142;2022-12-18T17:12:45;42.30;;;23.73;;
2544;SDS011;36212;48.838;9.142;2022-12-18T17:15:20;40.67;;;25.23;;
2544;SDS011;36212;48.838;9.142;2022-12-18T17:17:54;42.22;;;24.30;;
2544;SDS011;36212;48.838;9.142;2022-12-18T17:20:29;40.65;;;22.08;;
2544;SDS011;36212;48.838;9.142;2022-12-18T17:23:02;47.72;;;25.30;;
2544;SDS011;36212;48.838;9.142;2022-12-18T17:25:38;37.67;;;22.60;;
2544;SDS011;36212;48.838;9.142;2022-12-18T17:28:12;37.88;;;23.17;;
2544;SDS011;36212;48.838;9.142;2022-12-18T17:30:46;40.95;;;24.70;;
2544;SDS011;36212;48.838;9.142;2022-12-18T17:33:20;41.38;;;22.50;;
2544;SDS011;36212;48.838;9.142;2022-12-18T17:35:57;45.20;;;22.25;;
2544;SDS011;36212;48.838;9.142;2022-12-18T17:38:30;40.13;;;22.95;;